Time;durP1;ratioP1;P1;durP2;ratioP2;P2;SDS_P1;SDS_P2;PMS_P1;PMS_P2;Temp;Humidity;BMP_temperature;BMP_pressure;BME280_temperature;BME280_humidity;BME280_pressure;Samples;Min_cycle;Max_cycle;Signal;HPM_P1;HPM_P2
2022/08/23 00:02:28;;;;;;;0.00;0.00;;;20.10;99.90;;;;;;5077526;28;20451;-78
2022/08/23 00:04:57;;;;;;;0.00;0.00;;;20.10;99.90;;;;;;5071706;28;20432;-76
2022/08/23 00:07:37;;;;;;;0.00;0.00;;;20.10;99.90;;;;;;5061777;28;20447;-75
2022/08/23 00:10:08;;;;;;;0.00;0.00;;;20.10;99.90;;;;;;5062037;28;20897;-75
2022/08/23 00:12:37;;;;;;;0.00;0.00;;;20.00;99.90;;;;;;5061639;28;20428;-76
2022/08/23 00:15:07;;;;;;;0.00;0.00;;;20.00;99.90;;;;;;5060625;28;20453;-77
2022/08/23 00:17:36;;;;;;;0.00;0.00;;;20.00;99.90;;;;;;5061272;28;20511;-76
2022/08/23 00:20:07;;;;;;;0.00;0.00;;;19.90;99.90;;;;;;5064428;28;20455;-77
2022/08/23 00:22:35;;;;;;;0.00;0.00;;;19.90;99.90;;;;;;5060664;28;20447;-76
2022/08/23 00:25:04;;;;;;;0.00;0.00;;;19.90;99.90;;;;;;5060351;28;20432;-75
2022/08/23 00:27:32;;;;;;;0.00;0.00;;;19.90;99.90;;;;;;5060508;28;20680;-75
2022/08/23 00:30:00;;;;;;;0.00;0.00;;;20.00;99.90;;;;;;5060003;28;20520;-75
2022/08/23 00:32:31;;;;;;;0.00;0.00;;;20.00;99.90;;;;;;5060427;28;20439;-75
2022/08/23 00:35:00;;;;;;;0.00;0.00;;;20.00;99.90;;;;;;5060190;28;20467;-76
2022/08/23 00:37:31;;;;;;;0.00;0.00;;;20.00;99.90;;;;;;5060184;28;20501;-75
2022/08/23 00:39:59;;;;;;;0.00;0.00;;;20.10;99.90;;;;;;5060094;28;20618;-75
2022/08/23 00:48:12;;;;;;;0.00;0.00;;;20.20;99.90;;;;;;5059946;28;20462;-76
2022/08/23 00:50:48;;;;;;;0.00;0.00;;;20.20;99.90;;;;;;5059381;28;20732;-76
2022/08/23 00:53:21;;;;;;;0.00;0.00;;;20.20;99.90;;;;;;5060463;28;20451;-76
2022/08/23 00:55:53;;;;;;;0.00;0.00;;;20.30;99.90;;;;;;5060114;28;20535;-75
2022/08/23 00:58:22;;;;;;;0.00;0.00;;;20.30;99.90;;;;;;5061279;28;20488;-77
2022/08/23 01:00:52;;;;;;;0.00;0.00;;;20.30;99.90;;;;;;5062238;28;20446;-76
2022/08/23 01:03:23;;;;;;;0.00;0.00;;;20.30;99.90;;;;;;5062090;28;20439;-76
2022/08/23 01:05:56;;;;;;;0.00;0.00;;;20.20;99.90;;;;;;5062210;28;20462;-76
2022/08/23 01:08:27;;;;;;;0.00;0.00;;;20.20;99.90;;;;;;5062728;28;20466;-76
2022/08/23 01:10:59;;;;;;;0.00;0.00;;;20.20;99.90;;;;;;5062209;28;20456;-77
2022/08/23 01:13:34;;;;;;;0.00;0.00;;;20.20;99.90;;;;;;5062658;28;20443;-76
2022/08/23 01:16:08;;;;;;;0.00;0.00;;;20.20;99.90;;;;;;5062463;28;20438;-76
2022/08/23 01:18:37;;;;;;;0.00;0.00;;;20.30;99.90;;;;;;5067233;28;20551;-80
2022/08/23 01:21:12;;;;;;;0.00;0.00;;;20.30;99.90;;;;;;5085131;28;20507;-77
2022/08/23 01:23:45;;;;;;;0.00;0.00;;;20.30;99.90;;;;;;5070467;28;21025;-79
2022/08/23 01:26:15;;;;;;;0.00;0.00;;;20.20;99.90;;;;;;5067102;28;20451;-77
2022/08/23 01:28:48;;;;;;;0.00;0.00;;;20.20;99.90;;;;;;5071158;28;20978;-78
2022/08/23 01:31:17;;;;;;;0.00;0.00;;;20.30;99.90;;;;;;5063909;28;20451;-79
2022/08/23 01:33:49;;;;;;;0.00;0.00;;;20.30;99.90;;;;;;5060787;28;20995;-76
2022/08/23 01:36:18;;;;;;;0.00;0.00;;;20.30;99.90;;;;;;5060806;28;20442;-76
2022/08/23 01:38:48;;;;;;;0.00;0.00;;;20.30;99.90;;;;;;5061088;28;20479;-76
2022/08/23 01:41:16;;;;;;;0.00;0.00;;;20.30;99.90;;;;;;5060551;28;20561;-76
2022/08/23 01:43:44;;;;;;;0.00;0.00;;;20.30;99.90;;;;;;5060557;28;20482;-76
2022/08/23 01:46:16;;;;;;;0.00;0.00;;;20.30;99.90;;;;;;5060497;28;20968;-76
2022/08/23 01:48:46;;;;;;;0.00;0.00;;;20.30;99.90;;;;;;5059559;28;20454;-75
2022/08/23 01:51:15;;;;;;;0.00;0.00;;;20.30;99.90;;;;;;5059236;28;20443;-76
2022/08/23 01:53:45;;;;;;;0.00;0.00;;;20.30;99.90;;;;;;5059946;28;20446;-76
2022/08/23 01:56:18;;;;;;;0.00;0.00;;;20.30;99.90;;;;;;5060366;28;20439;-76
2022/08/23 01:58:55;;;;;;;0.00;0.00;;;20.30;99.90;;;;;;5059515;28;20672;-77
2022/08/23 02:01:23;;;;;;;0.00;0.00;;;20.30;99.90;;;;;;5060369;28;20748;-77
2022/08/23 02:03:54;;;;;;;0.00;0.00;;;20.20;99.90;;;;;;5062792;28;20939;-77
2022/08/23 02:06:32;;;;;;;0.00;0.00;;;20.20;99.90;;;;;;5063928;28;20529;-78
2022/08/23 02:09:04;;;;;;;0.00;0.00;;;20.20;99.90;;;;;;5067110;28;21107;-78
2022/08/23 02:11:46;;;;;;;0.00;0.00;;;20.20;99.90;;;;;;5068187;28;21112;-77
2022/08/23 02:14:17;;;;;;;0.00;0.00;;;20.20;99.90;;;;;;5067023;28;20515;-76
2022/08/23 02:20:14;;;;;;;0.00;0.00;;;20.20;99.90;;;;;;5929205;22;20810;-93
2022/08/23 02:22:42;;;;;;;0.00;0.00;;;20.10;99.90;;;;;;5091655;28;20553;-92
2022/08/23 02:25:10;;;;;;;0.00;0.00;;;20.10;99.90;;;;;;5091860;28;20457;-91
2022/08/23 02:27:39;;;;;;;0.00;0.00;;;20.10;99.90;;;;;;5105354;28;20508;-91
2022/08/23 02:30:12;;;;;;;0.00;0.00;;;20.10;99.90;;;;;;5102477;28;20442;-92
2022/08/23 02:32:41;;;;;;;0.00;0.00;;;20.10;99.90;;;;;;5092154;28;20472;-92
2022/08/23 02:35:09;;;;;;;0.00;0.00;;;20.10;99.90;;;;;;5091837;28;20507;-92
2022/08/23 02:37:37;;;;;;;0.00;0.00;;;20.10;99.90;;;;;;5092758;28;20477;-91
2022/08/23 02:40:07;;;;;;;0.00;0.00;;;20.20;99.90;;;;;;5090571;28;20454;-91
2022/08/23 02:42:35;;;;;;;0.00;0.00;;;20.10;99.90;;;;;;5092930;28;20451;-91
2022/08/23 02:45:07;;;;;;;0.00;0.00;;;20.10;99.90;;;;;;5093338;28;20438;-90
2022/08/23 02:47:36;;;;;;;0.00;0.00;;;20.10;99.90;;;;;;5093655;28;20450;-91
2022/08/23 02:50:05;;;;;;;0.00;0.00;;;20.00;99.90;;;;;;5092389;28;20445;-92
2022/08/23 02:52:34;;;;;;;0.00;0.00;;;20.00;99.90;;;;;;5092311;28;21155;-92
2022/08/23 02:55:02;;;;;;;0.00;0.00;;;20.00;99.90;;;;;;5092956;28;20538;-92
2022/08/23 02:57:30;;;;;;;0.00;0.00;;;20.00;99.90;;;;;;5094504;28;20553;-91
2022/08/23 02:59:58;;;;;;;0.00;0.00;;;20.00;99.90;;;;;;5094799;28;20453;-91
2022/08/23 03:02:28;;;;;;;0.00;0.00;;;20.00;99.90;;;;;;5095182;28;20553;-91
2022/08/23 03:04:56;;;;;;;0.00;0.00;;;20.00;99.90;;;;;;5093771;28;20445;-91
2022/08/23 03:07:25;;;;;;;0.00;0.00;;;20.00;99.90;;;;;;5092664;28;20763;-92
2022/08/23 03:09:53;;;;;;;0.00;0.00;;;20.00;99.90;;;;;;5098040;28;20434;-91
2022/08/23 03:12:21;;;;;;;0.00;0.00;;;19.90;99.90;;;;;;5111071;28;20606;-91
2022/08/23 03:14:50;;;;;;;0.00;0.00;;;19.90;99.90;;;;;;5096991;28;20928;-91
2022/08/23 03:17:19;;;;;;;0.00;0.00;;;19.90;99.90;;;;;;5098872;28;20423;-91
2022/08/23 03:19:51;;;;;;;0.00;0.00;;;19.90;99.90;;;;;;5096948;28;20478;-91
2022/08/23 03:22:21;;;;;;;0.00;0.00;;;19.90;99.90;;;;;;5096055;28;20490;-91
2022/08/23 03:24:49;;;;;;;0.00;0.00;;;19.90;99.90;;;;;;5112314;28;20437;-93
2022/08/23 03:27:18;;;;;;;0.00;0.00;;;19.90;99.90;;;;;;5117507;28;20735;-92
2022/08/23 03:29:46;;;;;;;0.00;0.00;;;19.90;99.90;;;;;;5118433;28;20529;-92
2022/08/23 03:32:14;;;;;;;0.00;0.00;;;19.90;99.90;;;;;;5118432;28;20446;-91
2022/08/23 03:34:43;;;;;;;0.00;0.00;;;19.80;99.90;;;;;;5118048;28;20431;-92
2022/08/23 03:37:13;;;;;;;0.00;0.00;;;19.80;99.90;;;;;;5118428;28;20513;-91
2022/08/23 03:39:41;;;;;;;0.00;0.00;;;19.80;99.90;;;;;;5117941;28;20498;-92
2022/08/23 03:42:09;;;;;;;0.00;0.00;;;19.70;99.90;;;;;;5117738;28;20450;-92
2022/08/23 03:44:37;;;;;;;0.00;0.00;;;19.80;99.90;;;;;;5117570;28;20457;-91
2022/08/23 03:47:05;;;;;;;0.00;0.00;;;19.80;99.90;;;;;;5112085;28;20453;-91
2022/08/23 03:49:34;;;;;;;0.00;0.00;;;19.80;99.90;;;;;;5107720;28;20478;-91
2022/08/23 03:52:02;;;;;;;0.00;0.00;;;19.70;99.90;;;;;;5096239;28;21052;-91
2022/08/23 03:54:32;;;;;;;0.00;0.00;;;19.70;99.90;;;;;;5096146;28;20443;-91
2022/08/23 03:57:02;;;;;;;0.00;0.00;;;19.70;99.90;;;;;;5096198;28;20481;-92
2022/08/23 03:59:32;;;;;;;0.00;0.00;;;19.70;99.90;;;;;;5095073;28;20549;-91
2022/08/23 04:02:01;;;;;;;0.00;0.00;;;19.70;99.90;;;;;;5095000;28;20541;-91
2022/08/23 04:04:29;;;;;;;0.00;0.00;;;19.70;99.90;;;;;;5094001;28;20541;-91
2022/08/23 04:06:57;;;;;;;0.00;0.00;;;19.70;99.90;;;;;;5098795;28;20447;-91
2022/08/23 04:09:25;;;;;;;0.00;0.00;;;19.70;99.90;;;;;;5106016;28;20462;-90
2022/08/23 04:11:55;;;;;;;0.00;0.00;;;19.70;99.90;;;;;;5113068;27;20467;-90
2022/08/23 04:14:23;;;;;;;0.00;0.00;;;19.70;99.90;;;;;;5095126;28;20489;-90
2022/08/23 04:16:51;;;;;;;0.00;0.00;;;19.70;99.90;;;;;;5094832;28;20460;-90
2022/08/23 04:19:22;;;;;;;0.00;0.00;;;19.60;99.90;;;;;;5094973;28;20493;-90
2022/08/23 04:21:52;;;;;;;0.00;0.00;;;19.60;99.90;;;;;;5094057;28;20497;-91
2022/08/23 04:24:21;;;;;;;0.00;0.00;;;19.50;99.90;;;;;;5095410;28;20438;-91
2022/08/23 04:26:49;;;;;;;0.00;0.00;;;19.50;99.90;;;;;;5092893;28;20518;-91
2022/08/23 04:29:19;;;;;;;0.00;0.00;;;19.40;99.90;;;;;;5094188;28;20443;-91
2022/08/23 04:32:01;;;;;;;0.00;0.00;;;19.50;99.90;;;;;;5104281;28;20486;-91
2022/08/23 04:34:38;;;;;;;0.00;0.00;;;19.50;99.90;;;;;;5097516;28;20439;-91
2022/08/23 04:37:07;;;;;;;0.00;0.00;;;19.50;99.90;;;;;;5092213;28;20587;-91
2022/08/23 04:42:16;;;;;;;0.00;0.00;;;19.50;99.90;;;;;;5093023;28;20545;-90
2022/08/23 04:42:25;;;;;;;0.00;0.00;;;19.50;99.90;;;;;;5093798;28;20518;-91
2022/08/23 04:44:54;;;;;;;0.00;0.00;;;19.50;99.90;;;;;;5091795;28;20431;-91
2022/08/23 04:47:22;;;;;;;0.00;0.00;;;19.50;99.90;;;;;;5101084;28;20502;-91
2022/08/23 04:49:50;;;;;;;0.00;0.00;;;19.50;99.90;;;;;;5104154;28;20430;-90
2022/08/23 04:52:18;;;;;;;0.00;0.00;;;19.50;99.90;;;;;;5105082;28;20497;-90
2022/08/23 04:54:46;;;;;;;0.00;0.00;;;19.50;99.90;;;;;;5102702;28;20513;-93
2022/08/23 04:57:15;;;;;;;0.00;0.00;;;19.50;99.90;;;;;;5102966;28;20503;-91
2022/08/23 04:59:43;;;;;;;0.00;0.00;;;19.60;99.90;;;;;;5101836;28;20484;-92
2022/08/23 05:02:13;;;;;;;0.00;0.00;;;19.60;99.90;;;;;;5103737;28;20514;-93
2022/08/23 05:04:42;;;;;;;0.00;0.00;;;19.60;99.90;;;;;;5104132;28;20718;-92
2022/08/23 05:07:10;;;;;;;0.00;0.00;;;19.60;99.90;;;;;;5097088;28;20513;-95
2022/08/23 05:09:38;;;;;;;0.00;0.00;;;19.60;99.90;;;;;;5098669;28;20515;-92
2022/08/23 05:12:07;;;;;;;0.00;0.00;;;19.60;99.90;;;;;;5111759;27;20478;-93
2022/08/23 05:14:35;;;;;;;0.00;0.00;;;19.60;99.90;;;;;;5083106;28;20443;-93
2022/08/23 05:17:14;;;;;;;0.00;0.00;;;19.70;99.90;;;;;;5086607;28;20447;-94
2022/08/23 05:19:44;;;;;;;0.00;0.00;;;19.70;99.90;;;;;;5084935;28;20470;-93
2022/08/23 05:22:17;;;;;;;0.00;0.00;;;19.70;99.90;;;;;;5077705;28;20491;-93
2022/08/23 05:24:46;;;;;;;0.00;0.00;;;19.70;99.90;;;;;;5075361;28;20723;-93
2022/08/23 05:27:14;;;;;;;0.00;0.00;;;19.80;99.90;;;;;;5077121;28;20720;-93
2022/08/23 05:29:42;;;;;;;0.00;0.00;;;19.80;99.90;;;;;;5087094;28;20526;-94
2022/08/23 05:32:16;;;;;;;0.00;0.00;;;19.80;99.90;;;;;;5081478;28;20471;-94
2022/08/23 05:34:47;;;;;;;0.00;0.00;;;19.90;99.90;;;;;;5079179;28;20481;-93
2022/08/23 05:37:18;;;;;;;0.00;0.00;;;20.00;99.90;;;;;;5075160;28;20453;-93
2022/08/23 05:39:46;;;;;;;0.00;0.00;;;20.00;99.90;;;;;;5078578;28;20954;-92
2022/08/23 05:42:16;;;;;;;0.00;0.00;;;20.00;99.90;;;;;;5072889;28;20888;-93
2022/08/23 05:44:44;;;;;;;0.00;0.00;;;20.10;99.90;;;;;;5069746;28;20478;-93
2022/08/23 05:47:15;;;;;;;0.00;0.00;;;20.20;99.90;;;;;;5070308;28;20447;-93
2022/08/23 05:49:44;;;;;;;0.00;0.00;;;20.30;99.90;;;;;;5069974;28;20961;-92
2022/08/23 05:52:15;;;;;;;0.00;0.00;;;20.30;99.90;;;;;;5068510;28;20463;-91
2022/08/23 05:54:43;;;;;;;0.00;0.00;;;20.30;99.90;;;;;;5068275;28;20475;-92
2022/08/23 05:57:14;;;;;;;0.00;0.00;;;20.40;99.90;;;;;;5069020;28;20451;-92
2022/08/23 05:59:42;;;;;;;0.00;0.00;;;20.40;99.90;;;;;;5082956;28;20526;-92
2022/08/23 06:02:10;;;;;;;0.00;0.00;;;20.50;99.90;;;;;;5091488;28;20482;-92
2022/08/23 06:04:38;;;;;;;0.00;0.00;;;20.50;99.90;;;;;;5089555;28;20583;-91
2022/08/23 06:07:08;;;;;;;0.00;0.00;;;20.50;99.90;;;;;;5092734;28;20481;-92
2022/08/23 06:09:38;;;;;;;0.00;0.00;;;20.60;99.90;;;;;;5105443;28;20446;-92
2022/08/23 06:12:06;;;;;;;0.00;0.00;;;20.70;99.90;;;;;;5097743;28;20972;-91
2022/08/23 06:14:34;;;;;;;0.00;0.00;;;20.80;99.90;;;;;;5094146;28;20556;-92
2022/08/23 06:17:02;;;;;;;0.00;0.00;;;20.90;99.90;;;;;;5094631;28;20446;-91
2022/08/23 06:19:30;;;;;;;0.00;0.00;;;21.00;99.90;;;;;;5093613;28;21034;-92
2022/08/23 06:21:59;;;;;;;0.00;0.00;;;21.10;99.90;;;;;;5094150;28;20478;-92
2022/08/23 06:24:28;;;;;;;0.00;0.00;;;21.10;99.90;;;;;;5095748;28;20470;-93
2022/08/23 06:26:59;;;;;;;0.00;0.00;;;21.20;99.90;;;;;;5095270;28;20844;-93
2022/08/23 06:29:27;;;;;;;0.00;0.00;;;21.30;99.90;;;;;;5095717;28;20952;-93
2022/08/23 06:32:04;;;;;;;0.00;0.00;;;21.40;99.90;;;;;;5097752;28;20473;-92
2022/08/23 06:34:35;;;;;;;0.00;0.00;;;21.30;99.90;;;;;;5096742;28;20442;-93
2022/08/23 06:37:06;;;;;;;0.00;0.00;;;21.40;99.90;;;;;;5092833;28;20503;-92
2022/08/23 06:39:35;;;;;;;0.00;0.00;;;21.40;99.90;;;;;;5093239;28;20711;-91
2022/08/23 06:42:08;;;;;;;0.00;0.00;;;21.40;99.90;;;;;;5075842;28;20817;-92
2022/08/23 06:45:05;;;;;;;0.00;0.00;;;21.30;99.90;;;;;;5081778;28;20431;-91
2022/08/23 06:47:33;;;;;;;0.00;0.00;;;21.30;99.90;;;;;;5093346;28;21112;-92
2022/08/23 06:50:10;;;;;;;0.00;0.00;;;21.20;99.90;;;;;;5096933;28;20458;-91
2022/08/23 06:52:39;;;;;;;0.00;0.00;;;21.20;99.90;;;;;;5096214;28;20466;-90
2022/08/23 06:55:17;;;;;;;0.00;0.00;;;21.20;99.90;;;;;;5094414;28;20442;-90
2022/08/23 06:57:48;;;;;;;0.00;0.00;;;21.30;99.90;;;;;;5094233;28;20478;-90
2022/08/23 07:00:19;;;;;;;0.00;0.00;;;21.30;99.90;;;;;;5095457;28;20475;-91
2022/08/23 07:02:50;;;;;;;0.00;0.00;;;21.20;99.90;;;;;;5096405;28;20498;-92
2022/08/23 07:05:18;;;;;;;0.00;0.00;;;21.20;99.90;;;;;;5099159;28;20453;-91
2022/08/23 07:07:57;;;;;;;0.00;0.00;;;21.20;99.90;;;;;;5099288;28;20506;-92
2022/08/23 07:10:28;;;;;;;0.00;0.00;;;21.30;99.90;;;;;;5106906;28;20466;-91
2022/08/23 07:12:58;;;;;;;0.00;0.00;;;21.30;99.90;;;;;;5079419;28;20447;-91
2022/08/23 07:15:26;;;;;;;0.00;0.00;;;21.40;99.90;;;;;;5079241;28;20962;-91
2022/08/23 07:17:55;;;;;;;0.00;0.00;;;21.50;99.90;;;;;;5078359;28;20447;-91
2022/08/23 07:20:23;;;;;;;0.00;0.00;;;21.60;99.90;;;;;;5080174;28;20501;-91
2022/08/23 07:22:51;;;;;;;0.00;0.00;;;21.70;99.90;;;;;;5080610;28;20558;-92
2022/08/23 07:25:23;;;;;;;0.00;0.00;;;21.70;99.90;;;;;;5082896;28;20444;-92
2022/08/23 07:27:52;;;;;;;0.00;0.00;;;21.80;99.90;;;;;;5079610;28;20505;-92
2022/08/23 07:30:21;;;;;;;0.00;0.00;;;21.80;99.90;;;;;;5078237;28;20480;-92
2022/08/23 07:32:50;;;;;;;0.00;0.00;;;21.80;99.90;;;;;;5078571;28;20479;-91
2022/08/23 07:35:18;;;;;;;0.00;0.00;;;21.80;99.90;;;;;;5079481;28;20469;-93
2022/08/23 07:37:48;;;;;;;0.00;0.00;;;21.90;99.90;;;;;;5084025;28;20444;-92
2022/08/23 07:40:18;;;;;;;0.00;0.00;;;22.00;99.90;;;;;;5088985;28;20523;-93
2022/08/23 07:42:47;;;;;;;0.00;0.00;;;22.00;99.90;;;;;;5104599;28;20559;-92
2022/08/23 07:45:16;;;;;;;0.00;0.00;;;22.10;99.90;;;;;;5103925;28;20494;-93
2022/08/23 07:47:50;;;;;;;0.00;0.00;;;22.10;99.90;;;;;;5105283;28;20459;-91
2022/08/23 07:50:19;;;;;;;0.00;0.00;;;22.10;99.90;;;;;;5074354;28;20440;-92
2022/08/23 07:52:48;;;;;;;0.00;0.00;;;22.20;99.90;;;;;;5076966;28;20491;-92
2022/08/23 07:55:17;;;;;;;0.00;0.00;;;22.30;99.90;;;;;;5074387;28;20449;-92
2022/08/23 07:57:45;;;;;;;0.00;0.00;;;22.40;99.90;;;;;;5076886;28;20463;-92
2022/08/23 08:00:17;;;;;;;0.00;0.00;;;22.40;99.90;;;;;;5082333;28;20465;-93
2022/08/23 08:02:57;;;;;;;0.00;0.00;;;22.40;99.90;;;;;;5089431;28;21180;-94
2022/08/23 08:05:31;;;;;;;0.00;0.00;;;22.40;99.90;;;;;;5091297;28;20772;-93
2022/08/23 08:08:02;;;;;;;0.00;0.00;;;22.50;99.90;;;;;;5104253;28;20425;-91
2022/08/23 08:10:31;;;;;;;0.00;0.00;;;22.60;99.90;;;;;;5115909;28;20538;-92
2022/08/23 08:13:04;;;;;;;0.00;0.00;;;22.70;99.90;;;;;;5107840;28;20509;-90
2022/08/23 08:15:32;;;;;;;0.00;0.00;;;22.70;99.90;;;;;;5100200;28;21044;-91
2022/08/23 08:18:02;;;;;;;0.00;0.00;;;22.70;99.90;;;;;;5112317;22;20513;-72
2022/08/23 08:20:34;;;;;;;0.00;0.00;;;22.80;99.90;;;;;;5060227;28;20490;-72
2022/08/23 08:23:01;;;;;;;0.00;0.00;;;22.90;99.90;;;;;;5061183;28;20511;-72
2022/08/23 08:25:32;;;;;;;0.00;0.00;;;22.90;99.90;;;;;;5060841;28;20464;-73
2022/08/23 08:28:01;;;;;;;0.00;0.00;;;23.00;99.90;;;;;;5060205;28;20589;-73
2022/08/23 08:30:29;;;;;;;0.00;0.00;;;23.00;99.90;;;;;;5060317;28;20787;-72
2022/08/23 08:32:56;;;;;;;0.00;0.00;;;23.10;99.90;;;;;;5060510;28;20520;-72
2022/08/23 08:35:26;;;;;;;0.00;0.00;;;23.20;99.90;;;;;;5060054;28;20454;-72
2022/08/23 08:37:54;;;;;;;0.00;0.00;;;23.30;99.90;;;;;;5060314;28;20719;-72
2022/08/23 08:40:30;;;;;;;0.00;0.00;;;23.30;99.90;;;;;;5061076;28;20454;-72
2022/08/23 08:43:13;;;;;;;0.00;0.00;;;23.30;99.90;;;;;;5058164;28;21016;-73
2022/08/23 08:45:52;;;;;;;0.00;0.00;;;23.40;99.90;;;;;;5048270;28;20462;-72
2022/08/23 08:48:27;;;;;;;0.00;0.00;;;23.40;99.90;;;;;;5045236;28;20483;-72
2022/08/23 08:51:03;;;;;;;0.00;0.00;;;23.40;99.90;;;;;;5060273;28;20993;-71
2022/08/23 08:53:35;;;;;;;0.00;0.00;;;23.40;99.90;;;;;;5059614;28;20460;-72
2022/08/23 08:56:11;;;;;;;0.00;0.00;;;23.50;99.90;;;;;;5058254;28;20430;-71
2022/08/23 08:58:49;;;;;;;0.00;0.00;;;23.50;99.90;;;;;;5052228;28;20912;-84
2022/08/23 09:01:18;;;;;;;0.00;0.00;;;23.60;99.90;;;;;;5044195;28;20485;-78
2022/08/23 09:03:47;;;;;;;0.00;0.00;;;23.60;99.90;;;;;;5045508;28;20889;-75
2022/08/23 09:06:24;;;;;;;0.00;0.00;;;23.60;99.90;;;;;;5039830;28;20965;-74
2022/08/23 09:09:08;;;;;;;0.00;0.00;;;23.60;99.90;;;;;;5039461;28;20755;-74
2022/08/23 09:11:51;;;;;;;0.00;0.00;;;23.70;99.90;;;;;;5039475;28;20452;-75
2022/08/23 09:14:41;;;;;;;0.00;0.00;;;23.70;99.90;;;;;;5046803;28;20470;-71
2022/08/23 09:17:19;;;;;;;0.00;0.00;;;23.90;99.90;;;;;;5055577;28;20460;-71
2022/08/23 09:19:52;;;;;;;0.00;0.00;;;24.00;99.90;;;;;;5043869;28;20483;-74
2022/08/23 09:22:35;;;;;;;0.00;0.00;;;24.10;99.90;;;;;;5039802;28;21024;-69
2022/08/23 09:25:09;;;;;;;0.00;0.00;;;24.10;99.90;;;;;;5048334;28;20454;-66
2022/08/23 09:27:37;;;;;;;0.00;0.00;;;24.00;99.90;;;;;;5058111;28;20448;-66
2022/08/23 09:30:06;;;;;;;0.00;0.00;;;24.10;99.90;;;;;;5057920;28;20456;-66
2022/08/23 09:32:36;;;;;;;0.00;0.00;;;24.10;99.90;;;;;;5059665;28;20469;-66
2022/08/23 09:35:11;;;;;;;0.00;0.00;;;24.20;99.90;;;;;;5059509;28;20456;-66
2022/08/23 09:37:58;;;;;;;0.00;0.00;;;24.30;99.90;;;;;;5058650;28;20472;-66
2022/08/23 09:40:35;;;;;;;0.00;0.00;;;24.40;99.90;;;;;;5058523;28;21092;-66
2022/08/23 09:43:12;;;;;;;0.00;0.00;;;24.40;99.90;;;;;;5059759;28;21220;-66
2022/08/23 09:45:58;;;;;;;0.00;0.00;;;24.40;99.90;;;;;;5060844;28;20444;-66
2022/08/23 09:48:38;;;;;;;0.00;0.00;;;24.40;99.90;;;;;;5060214;28;20458;-66
2022/08/23 09:51:15;;;;;;;0.00;0.00;;;24.60;99.90;;;;;;5059772;28;20441;-66
2022/08/23 09:53:49;;;;;;;0.00;0.00;;;24.70;99.90;;;;;;5059954;28;20442;-66
2022/08/23 09:56:23;;;;;;;0.00;0.00;;;24.70;99.90;;;;;;5059758;28;20465;-66
2022/08/23 09:58:52;;;;;;;0.00;0.00;;;24.70;99.90;;;;;;5059619;28;20807;-67
2022/08/23 10:01:23;;;;;;;0.00;0.00;;;24.80;99.90;;;;;;5059532;28;20452;-66
2022/08/23 10:04:09;;;;;;;0.00;0.00;;;24.90;99.90;;;;;;5059990;28;20453;-66
2022/08/23 10:06:39;;;;;;;0.00;0.00;;;25.00;99.90;;;;;;5059605;28;20434;-66
2022/08/23 10:09:09;;;;;;;0.00;0.00;;;25.00;99.90;;;;;;5059033;28;20455;-66
2022/08/23 10:11:42;;;;;;;0.00;0.00;;;25.10;99.90;;;;;;5059105;28;20533;-66
2022/08/23 10:14:10;;;;;;;0.00;0.00;;;25.20;99.90;;;;;;5059182;28;20448;-67
2022/08/23 10:16:43;;;;;;;0.00;0.00;;;25.30;99.90;;;;;;5058979;28;20453;-67
2022/08/23 10:19:24;;;;;;;0.00;0.00;;;25.30;99.90;;;;;;5058620;28;21055;-68
2022/08/23 10:21:58;;;;;;;0.00;0.00;;;25.40;99.90;;;;;;5057988;28;20573;-66
2022/08/23 10:24:43;;;;;;;0.00;0.00;;;25.50;99.90;;;;;;5057934;28;20442;-67
2022/08/23 10:30:12;;;;;;;0.00;0.00;;;25.50;99.90;;;;;;5058576;28;20745;-67
2022/08/23 10:32:50;;;;;;;0.00;0.00;;;25.50;99.90;;;;;;5058542;28;20836;-67
2022/08/23 10:35:29;;;;;;;0.00;0.00;;;25.60;99.90;;;;;;5058643;28;20761;-68
2022/08/23 10:38:16;;;;;;;0.00;0.00;;;25.70;99.90;;;;;;5058224;28;20432;-65
2022/08/23 10:41:02;;;;;;;0.00;0.00;;;25.70;99.90;;;;;;5058139;28;20444;-65
2022/08/23 10:43:38;;;;;;;0.00;0.00;;;25.90;99.90;;;;;;5058519;28;20497;-64
2022/08/23 10:46:08;;;;;;;0.00;0.00;;;25.90;99.90;;;;;;5059237;28;20607;-65
2022/08/23 10:48:39;;;;;;;0.00;0.00;;;26.00;99.90;;;;;;5058249;28;20712;-66
2022/08/23 10:51:11;;;;;;;0.00;0.00;;;26.00;99.90;;;;;;5057858;28;20427;-65
2022/08/23 10:53:45;;;;;;;0.00;0.00;;;26.00;99.90;;;;;;5057853;28;20517;-65
2022/08/23 10:56:19;;;;;;;0.00;0.00;;;26.10;99.90;;;;;;5057871;28;20707;-65
2022/08/23 10:58:51;;;;;;;0.00;0.00;;;26.10;99.90;;;;;;5058217;28;20456;-68
2022/08/23 11:01:22;;;;;;;0.00;0.00;;;26.10;99.90;;;;;;5057600;28;20435;-65
2022/08/23 11:04:02;;;;;;;0.00;0.00;;;26.10;99.90;;;;;;5057610;28;20778;-67
2022/08/23 11:06:44;;;;;;;0.00;0.00;;;26.20;99.90;;;;;;5057721;28;20423;-66
2022/08/23 11:09:47;;;;;;;0.00;0.00;;;26.20;99.90;;;;;;5057817;28;20499;-65
2022/08/23 11:12:28;;;;;;;0.00;0.00;;;26.20;99.90;;;;;;5057682;28;20438;-66
2022/08/23 11:15:12;;;;;;;0.00;0.00;;;26.30;99.90;;;;;;5057822;28;20474;-66
2022/08/23 11:17:54;;;;;;;0.00;0.00;;;26.30;99.90;;;;;;5057828;28;20604;-65
2022/08/23 11:21:00;;;;;;;0.00;0.00;;;26.30;99.90;;;;;;5057729;28;20464;-67
2022/08/23 11:23:43;;;;;;;0.00;0.00;;;26.40;99.90;;;;;;5057690;28;20479;-68
2022/08/23 11:27:04;;;;;;;0.00;0.00;;;26.50;99.90;;;;;;5057235;28;20451;-65
2022/08/23 11:29:37;;;;;;;0.00;0.00;;;26.50;99.90;;;;;;5057626;28;20472;-65
2022/08/23 11:32:30;;;;;;;0.00;0.00;;;26.50;99.90;;;;;;5057301;28;20532;-65
2022/08/23 11:35:07;;;;;;;0.00;0.00;;;26.60;99.90;;;;;;5058320;28;20472;-65
2022/08/23 11:37:56;;;;;;;0.00;0.00;;;26.60;99.90;;;;;;5061014;28;20451;-66
2022/08/23 11:40:58;;;;;;;0.00;0.00;;;26.70;99.90;;;;;;5061485;28;20442;-65
2022/08/23 11:43:30;;;;;;;0.00;0.00;;;26.70;99.90;;;;;;5061240;28;20472;-65
2022/08/23 11:46:33;;;;;;;0.00;0.00;;;26.70;99.90;;;;;;5061252;28;20448;-65
2022/08/23 11:49:46;;;;;;;0.00;0.00;;;26.70;99.90;;;;;;5061316;28;20550;-66
2022/08/23 11:52:33;;;;;;;0.00;0.00;;;26.70;99.90;;;;;;4960063;28;20532;-65
2022/08/23 11:55:16;;;;;;;0.00;0.00;;;26.80;99.90;;;;;;5061540;28;20517;-67
2022/08/23 11:57:54;;;;;;;0.00;0.00;;;26.80;99.90;;;;;;5061756;28;20501;-65
2022/08/23 12:00:26;;;;;;;0.00;0.00;;;26.80;99.90;;;;;;5066543;28;20476;-65
2022/08/23 12:03:02;;;;;;;0.00;0.00;;;26.80;99.90;;;;;;5062048;28;20499;-65
2022/08/23 12:06:08;;;;;;;0.00;0.00;;;26.90;99.90;;;;;;5062081;28;20452;-65
2022/08/23 12:08:54;;;;;;;0.00;0.00;;;26.90;99.90;;;;;;5062157;28;20530;-66
2022/08/23 12:11:23;;;;;;;0.00;0.00;;;27.00;99.90;;;;;;5062313;28;20449;-67
2022/08/23 12:14:19;;;;;;;0.00;0.00;;;27.20;99.90;;;;;;5062532;28;20442;-68
2022/08/23 12:16:49;;;;;;;0.00;0.00;;;27.20;99.90;;;;;;5062683;28;21192;-68
2022/08/23 12:19:31;;;;;;;0.00;0.00;;;27.20;99.90;;;;;;5063273;28;20485;-67
2022/08/23 12:22:12;;;;;;;0.00;0.00;;;27.30;99.30;;;;;;5063676;28;20460;-67
2022/08/23 12:24:43;;;;;;;0.00;0.00;;;27.30;99.80;;;;;;5063352;28;20477;-71
2022/08/23 12:27:26;;;;;;;0.00;0.00;;;27.30;99.60;;;;;;5062975;28;20442;-69
2022/08/23 12:30:01;;;;;;;0.00;0.00;;;27.40;99.80;;;;;;5061689;28;20819;-71
2022/08/23 12:32:41;;;;;;;0.00;0.00;;;27.40;99.50;;;;;;5062059;28;20472;-68
2022/08/23 12:35:25;;;;;;;0.00;0.00;;;27.50;99.40;;;;;;5061002;28;20450;-68
2022/08/23 12:38:02;;;;;;;0.00;0.00;;;27.50;99.20;;;;;;5060260;28;20761;-69
2022/08/23 12:40:33;;;;;;;0.00;0.00;;;27.50;99.50;;;;;;5060810;28;20725;-69
2022/08/23 12:45:43;;;;;;;0.00;0.00;;;27.60;99.30;;;;;;5106212;23;20962;-89
2022/08/23 12:48:14;;;;;;;0.00;0.00;;;27.60;99.40;;;;;;5074557;28;20447;-90
2022/08/23 12:50:44;;;;;;;0.00;0.00;;;27.70;99.10;;;;;;5076227;28;20440;-90
2022/08/23 12:53:25;;;;;;;0.00;0.00;;;27.70;99.00;;;;;;5077286;28;20744;-89
2022/08/23 12:56:09;;;;;;;0.00;0.00;;;27.70;99.00;;;;;;5078085;28;20484;-92
2022/08/23 12:58:50;;;;;;;0.00;0.00;;;27.80;98.90;;;;;;5076905;28;20447;-90
2022/08/23 13:01:24;;;;;;;0.00;0.00;;;27.80;98.90;;;;;;5077147;28;20510;-91
2022/08/23 13:04:01;;;;;;;0.00;0.00;;;27.80;98.60;;;;;;5075828;28;20470;-90
2022/08/23 13:06:37;;;;;;;0.00;0.00;;;27.90;98.70;;;;;;5075823;28;20492;-90
2022/08/23 13:09:17;;;;;;;0.00;0.00;;;27.90;98.50;;;;;;5076934;28;20545;-89
2022/08/23 13:11:56;;;;;;;0.00;0.00;;;27.90;98.60;;;;;;5073987;28;20456;-90
2022/08/23 13:14:37;;;;;;;0.00;0.00;;;27.90;98.30;;;;;;5076170;28;20455;-93
2022/08/23 13:17:18;;;;;;;0.00;0.00;;;27.90;97.90;;;;;;5075586;28;20476;-91
2022/08/23 13:19:49;;;;;;;0.00;0.00;;;27.90;98.30;;;;;;5076277;28;20445;-91
2022/08/23 13:22:25;;;;;;;0.00;0.00;;;27.90;98.40;;;;;;5076557;28;20525;-91
2022/08/23 13:25:07;;;;;;;0.00;0.00;;;27.80;98.30;;;;;;5076223;28;20503;-91
2022/08/23 13:27:58;;;;;;;0.00;0.00;;;27.90;98.20;;;;;;5078557;28;20557;-87
2022/08/23 13:30:32;;;;;;;0.00;0.00;;;28.00;97.90;;;;;;5081427;28;20510;-93
2022/08/23 13:33:21;;;;;;;0.00;0.00;;;28.00;98.10;;;;;;5081925;28;20457;-91
2022/08/23 13:35:51;;;;;;;0.00;0.00;;;28.10;98.20;;;;;;5096003;28;20480;-91